createdAt,value
2023-02-08T06:50:11.002Z,32.38
2023-02-08T06:53:13.120Z,32.03
2023-02-08T06:56:15.045Z,33.85
2023-02-08T06:59:16.938Z,34.22
2023-02-08T07:02:23.487Z,41.28
2023-02-08T07:05:25.548Z,30.40
2023-02-08T07:08:27.844Z,28.05
2023-02-08T07:11:34.162Z,28.08
2023-02-08T07:14:41.945Z,32.42
2023-02-08T07:17:44.296Z,31.50
2023-02-08T07:20:47.137Z,28.17
2023-02-08T07:23:51.692Z,29.85
2023-02-08T07:26:54.185Z,31.83
2023-02-08T07:29:56.743Z,34.08
2023-02-08T07:33:00.580Z,33.60
2023-02-08T07:36:05.973Z,27.63
2023-02-08T07:39:08.456Z,30.35
2023-02-08T07:42:11.167Z,29.50
2023-02-08T07:45:13.082Z,31.63
2023-02-08T07:48:14.842Z,42.17
2023-02-08T07:51:17.078Z,26.02
2023-02-08T07:54:19.020Z,25.25
2023-02-08T07:57:22.309Z,29.55
2023-02-08T08:00:24.670Z,31.63
2023-02-08T08:03:26.557Z,25.83
2023-02-08T08:06:28.514Z,30.77
2023-02-08T08:09:30.564Z,28.85
2023-02-08T08:12:32.826Z,28.55
2023-02-08T08:15:35.204Z,30.60
2023-02-08T08:18:38.069Z,28.38
2023-02-08T08:21:40.230Z,33.25
2023-02-08T08:24:42.114Z,28.40
2023-02-08T08:27:44.021Z,32.35
2023-02-08T08:30:46.273Z,35.80
2023-02-08T08:33:49.392Z,28.33
2023-02-08T08:36:51.464Z,24.73
2023-02-08T08:39:53.290Z,23.02
2023-02-08T08:42:58.090Z,20.13
2023-02-08T08:46:02.800Z,24.95
2023-02-08T08:49:08.685Z,25.70
2023-02-08T08:52:14.449Z,27.55
2023-02-08T08:55:16.570Z,28.08
2023-02-08T08:58:21.663Z,23.45
2023-02-08T09:04:26.872Z,24.05
2023-02-08T09:07:29.463Z,34.17
2023-02-08T09:10:34.462Z,23.52
2023-02-08T09:13:38.520Z,34.65
2023-02-08T09:16:43.311Z,26.87
2023-02-08T09:19:48.142Z,27.27
2023-02-08T09:22:51.985Z,20.70
2023-02-08T09:25:58.013Z,27.33
2023-02-08T09:29:01.526Z,21.95
2023-02-08T09:32:04.119Z,26.27
2023-02-08T09:35:08.460Z,28.08
2023-02-08T09:38:11.033Z,28.48
2023-02-08T09:41:23.651Z,33.50
2023-02-08T09:45:10.502Z,26.00
2023-02-08T09:48:14.667Z,29.60
2023-02-08T09:51:33.150Z,22.30
2023-02-08T09:54:39.877Z,27.05
2023-02-08T09:57:44.451Z,25.02
2023-02-08T10:00:51.501Z,27.15
2023-02-08T10:03:59.862Z,31.15
2023-02-08T10:07:01.721Z,21.65
2023-02-08T10:10:06.664Z,25.42
2023-02-08T10:13:41.702Z,30.42
2023-02-08T10:17:21.604Z,30.47
2023-02-08T10:20:51.949Z,28.48
2023-02-08T10:24:21.784Z,26.67
2023-02-08T10:27:48.242Z,26.40
2023-02-08T10:31:03.436Z,27.23
2023-02-08T10:34:14.236Z,22.33
2023-02-08T10:37:25.985Z,29.73
2023-02-08T10:40:34.743Z,24.17
2023-02-08T10:43:47.213Z,25.33
2023-02-08T10:47:24.030Z,17.70
2023-02-08T10:50:48.334Z,30.60
2023-02-08T10:53:51.916Z,29.75
2023-02-08T10:57:13.932Z,29.33
2023-02-08T11:00:27.689Z,26.13
2023-02-08T11:03:31.054Z,23.25
2023-02-08T11:06:33.810Z,26.05
2023-02-08T11:09:37.891Z,26.02
2023-02-08T11:12:42.814Z,25.88
2023-02-08T11:16:01.473Z,30.50
2023-02-08T11:19:08.421Z,24.15
2023-02-08T11:22:17.406Z,24.02
2023-02-08T11:25:36.456Z,24.40
2023-02-08T11:28:39.328Z,26.83
2023-02-08T11:32:02.741Z,21.95
2023-02-08T11:35:24.404Z,24.75
2023-02-08T11:38:30.558Z,22.15
2023-02-08T11:41:37.719Z,27.95
2023-02-08T11:44:46.106Z,27.55
2023-02-08T11:47:51.021Z,25.80
2023-02-08T11:51:00.474Z,26.98
2023-02-08T11:54:07.147Z,25.27
2023-02-08T11:57:19.873Z,23.73
2023-02-08T12:00:28.927Z,24.60
2023-02-08T12:03:38.983Z,25.17
2023-02-08T12:06:55.948Z,27.23
2023-02-08T12:10:09.977Z,28.15
2023-02-08T12:13:23.690Z,27.33
2023-02-08T12:16:36.140Z,24.20
2023-02-08T12:20:03.329Z,23.48
2023-02-08T12:23:46.182Z,27.42
2023-02-08T12:27:27.374Z,20.75
2023-02-08T12:30:54.604Z,27.73
2023-02-08T12:34:09.096Z,25.05
2023-02-08T12:37:29.923Z,27.00
2023-02-08T12:40:55.375Z,21.33
2023-02-08T12:44:09.266Z,26.58
2023-02-08T12:47:22.881Z,24.10
2023-02-08T12:50:33.472Z,25.35
2023-02-08T12:53:43.400Z,26.38
2023-02-08T12:57:01.484Z,25.48
2023-02-08T13:00:04.090Z,24.17
2023-02-08T13:03:16.617Z,22.88
2023-02-08T13:06:24.906Z,28.25
2023-02-08T13:09:34.438Z,34.05
2023-02-08T13:12:42.393Z,23.52
2023-02-08T13:15:52.088Z,22.33
2023-02-08T13:19:24.322Z,27.17
2023-02-08T13:22:26.761Z,21.48
2023-02-08T13:25:37.949Z,29.77
2023-02-08T13:28:40.442Z,22.38
2023-02-08T13:31:47.024Z,19.20
2023-02-08T13:34:54.106Z,21.45
2023-02-08T13:38:31.710Z,23.20
2023-02-08T13:41:35.466Z,18.40
2023-02-08T13:44:40.144Z,18.30
2023-02-08T13:47:49.941Z,20.00
2023-02-08T13:50:56.822Z,19.23
2023-02-08T13:53:58.521Z,19.55
2023-02-08T13:57:00.401Z,16.33
2023-02-08T14:00:24.838Z,20.50
2023-02-08T14:03:31.574Z,17.75
2023-02-08T14:06:37.635Z,21.63
2023-02-08T14:09:48.509Z,16.88
2023-02-08T14:13:09.205Z,19.35
2023-02-08T14:16:23.076Z,19.73
2023-02-08T14:19:25.396Z,19.67
2023-02-08T14:22:36.400Z,25.70
2023-02-08T14:25:43.325Z,19.83
2023-02-08T14:28:48.758Z,15.82
2023-02-08T14:31:51.196Z,15.93
2023-02-08T14:35:13.117Z,15.63
2023-02-08T14:38:20.715Z,18.10
2023-02-08T14:41:45.918Z,16.65
2023-02-08T14:44:57.769Z,15.63
2023-02-08T14:48:23.362Z,15.48
2023-02-08T14:51:31.750Z,16.67
2023-02-08T14:54:41.682Z,19.77
2023-02-08T14:57:43.945Z,14.48
2023-02-08T15:00:46.038Z,15.52
2023-02-08T15:03:52.851Z,12.30
2023-02-08T15:07:17.944Z,15.27
2023-02-08T15:10:21.692Z,13.98
2023-02-08T15:13:24.785Z,13.18
2023-02-08T15:16:35.579Z,14.57
2023-02-08T15:19:39.077Z,11.40
2023-02-08T15:22:40.722Z,15.10
2023-02-08T15:25:42.870Z,13.30
2023-02-08T15:28:45.640Z,20.90
2023-02-08T15:31:48.339Z,14.02
2023-02-08T15:34:59.316Z,13.18
2023-02-08T15:38:05.374Z,12.48
2023-02-08T15:41:13.129Z,15.73
2023-02-08T15:44:19.584Z,18.10
2023-02-08T15:47:28.500Z,15.93
2023-02-08T15:50:31.907Z,17.83
2023-02-08T15:53:43.594Z,16.10
2023-02-08T15:57:17.017Z,15.98
2023-02-08T16:00:26.509Z,14.43
2023-02-08T16:03:29.395Z,20.17
2023-02-08T16:06:46.199Z,16.98
2023-02-08T16:09:47.894Z,31.00
2023-02-08T16:12:59.962Z,19.25
2023-02-08T16:16:42.811Z,21.63
2023-02-08T16:19:51.344Z,22.35
2023-02-08T16:22:57.444Z,18.73
2023-02-08T16:26:12.564Z,19.50
2023-02-08T16:29:35.191Z,18.95
2023-02-08T16:32:39.437Z,20.38
2023-02-08T16:35:41.393Z,30.73
2023-02-08T16:38:47.633Z,24.88
2023-02-08T16:42:15.356Z,19.52
2023-02-08T16:45:22.512Z,24.33
2023-02-08T16:48:34.998Z,23.23
2023-02-08T16:51:39.391Z,23.60
2023-02-08T16:54:41.129Z,19.98
2023-02-08T16:57:51.922Z,23.98
